sensor_id;sensor_type;location;lat;lon;timestamp;pressure;altitude;pressure_sealevel;temperature;humidity
63097;BME280;49185;42.320;23.198;2023-12-14T00:00:36;93981.09;;;4.40;100.00
63097;BME280;49185;42.320;23.198;2023-12-14T00:03:01;93967.84;;;4.46;100.00
63097;BME280;49185;42.320;23.198;2023-12-14T00:05:27;93971.25;;;4.47;100.00
63097;BME280;49185;42.320;23.198;2023-12-14T00:07:52;93962.56;;;4.46;100.00
63097;BME280;49185;42.320;23.198;2023-12-14T00:10:17;93968.63;;;4.35;100.00
63097;BME280;49185;42.320;23.198;2023-12-14T00:12:43;93958.53;;;4.32;100.00
63097;BME280;49185;42.320;23.198;2023-12-14T00:15:09;93958.66;;;4.37;100.00
63097;BME280;49185;42.320;23.198;2023-12-14T00:17:35;93965.53;;;4.50;100.00
63097;BME280;49185;42.320;23.198;2023-12-14T00:20:01;93962.91;;;4.50;100.00
63097;BME280;49185;42.320;23.198;2023-12-14T00:22:26;93955.44;;;4.23;100.00
63097;BME280;49185;42.320;23.198;2023-12-14T00:24:51;93955.69;;;4.22;100.00
63097;BME280;49185;42.320;23.198;2023-12-14T00:27:17;93948.69;;;4.27;100.00
63097;BME280;49185;42.320;23.198;2023-12-14T00:29:42;93956.38;;;4.29;100.00
63097;BME280;49185;42.320;23.198;2023-12-14T00:32:08;93954.19;;;4.26;100.00
63097;BME280;49185;42.320;23.198;2023-12-14T00:34:33;93939.66;;;4.35;100.00
63097;BME280;49185;42.320;23.198;2023-12-14T00:36:58;93965.63;;;4.19;100.00
63097;BME280;49185;42.320;23.198;2023-12-14T00:39:24;93945.09;;;3.98;100.00
63097;BME280;49185;42.320;23.198;2023-12-14T00:41:49;93942.81;;;4.02;100.00
63097;BME280;49185;42.320;23.198;2023-12-14T00:44:14;93948.44;;;4.05;100.00
63097;BME280;49185;42.320;23.198;2023-12-14T00:46:40;93950.88;;;4.18;100.00
63097;BME280;49185;42.320;23.198;2023-12-14T00:49:05;93939.66;;;4.35;100.00
63097;BME280;49185;42.320;23.198;2023-12-14T00:51:31;93930.72;;;4.60;100.00
63097;BME280;49185;42.320;23.198;2023-12-14T00:53:56;93959.34;;;4.68;100.00
63097;BME280;49185;42.320;23.198;2023-12-14T00:56:21;93950.88;;;4.66;100.00
63097;BME280;49185;42.320;23.198;2023-12-14T00:58:47;93953.16;;;4.50;100.00
63097;BME280;49185;42.320;23.198;2023-12-14T01:01:12;93956.16;;;4.30;100.00
63097;BME280;49185;42.320;23.198;2023-12-14T01:03:38;93976.50;;;4.11;100.00
63097;BME280;49185;42.320;23.198;2023-12-14T01:06:03;93945.94;;;4.10;100.00
63097;BME280;49185;42.320;23.198;2023-12-14T01:08:29;93981.66;;;4.18;100.00
63097;BME280;49185;42.320;23.198;2023-12-14T01:10:55;93959.31;;;4.09;100.00
63097;BME280;49185;42.320;23.198;2023-12-14T01:13:20;93954.28;;;4.19;100.00
63097;BME280;49185;42.320;23.198;2023-12-14T01:15:46;93959.56;;;4.19;100.00
63097;BME280;49185;42.320;23.198;2023-12-14T01:18:11;93955.47;;;4.59;100.00
63097;BME280;49185;42.320;23.198;2023-12-14T01:20:36;93955.97;;;4.96;100.00
63097;BME280;49185;42.320;23.198;2023-12-14T01:23:02;93950.09;;;5.46;100.00
63097;BME280;49185;42.320;23.198;2023-12-14T01:25:27;93952.69;;;5.75;100.00
63097;BME280;49185;42.320;23.198;2023-12-14T01:27:53;93943.44;;;5.89;100.00
63097;BME280;49185;42.320;23.198;2023-12-14T01:30:18;93958.22;;;6.02;100.00
63097;BME280;49185;42.320;23.198;2023-12-14T01:32:43;93957.91;;;5.99;100.00
63097;BME280;49185;42.320;23.198;2023-12-14T01:35:09;93959.34;;;6.06;100.00
63097;BME280;49185;42.320;23.198;2023-12-14T01:37:34;93950.78;;;5.99;100.00
63097;BME280;49185;42.320;23.198;2023-12-14T01:39:59;93946.16;;;5.95;100.00
63097;BME280;49185;42.320;23.198;2023-12-14T01:42:25;93940.84;;;6.06;100.00
63097;BME280;49185;42.320;23.198;2023-12-14T01:44:50;93945.25;;;6.18;100.00
63097;BME280;49185;42.320;23.198;2023-12-14T01:47:16;93950.13;;;6.09;100.00
63097;BME280;49185;42.320;23.198;2023-12-14T01:49:41;93943.88;;;5.53;100.00
63097;BME280;49185;42.320;23.198;2023-12-14T01:52:06;93933.06;;;5.25;100.00
63097;BME280;49185;42.320;23.198;2023-12-14T01:54:32;93948.34;;;5.11;100.00
63097;BME280;49185;42.320;23.198;2023-12-14T01:56:57;93952.41;;;5.02;100.00
63097;BME280;49185;42.320;23.198;2023-12-14T01:59:23;93954.06;;;5.20;100.00
63097;BME280;49185;42.320;23.198;2023-12-14T02:01:53;93958.53;;;5.20;100.00
63097;BME280;49185;42.320;23.198;2023-12-14T02:04:19;93964.78;;;5.13;100.00
63097;BME280;49185;42.320;23.198;2023-12-14T02:06:44;93950.94;;;4.94;100.00
63097;BME280;49185;42.320;23.198;2023-12-14T02:09:10;93946.91;;;4.92;100.00
63097;BME280;49185;42.320;23.198;2023-12-14T02:11:35;93926.28;;;5.58;100.00
63097;BME280;49185;42.320;23.198;2023-12-14T02:14:09;93926.56;;;5.90;100.00
63097;BME280;49185;42.320;23.198;2023-12-14T02:16:35;93938.69;;;6.03;100.00
63097;BME280;49185;42.320;23.198;2023-12-14T02:19:00;93928.84;;;6.16;100.00
63097;BME280;49185;42.320;23.198;2023-12-14T02:21:26;93932.38;;;6.04;100.00
63097;BME280;49185;42.320;23.198;2023-12-14T02:23:51;93923.81;;;6.14;100.00
63097;BME280;49185;42.320;23.198;2023-12-14T02:26:17;93906.25;;;5.91;100.00
63097;BME280;49185;42.320;23.198;2023-12-14T02:28:42;93906.78;;;5.59;100.00
63097;BME280;49185;42.320;23.198;2023-12-14T02:31:07;93914.03;;;5.52;100.00
63097;BME280;49185;42.320;23.198;2023-12-14T02:33:33;93901.59;;;5.64;100.00
63097;BME280;49185;42.320;23.198;2023-12-14T02:35:59;93892.72;;;5.70;100.00
63097;BME280;49185;42.320;23.198;2023-12-14T02:38:25;93901.19;;;5.89;100.00
63097;BME280;49185;42.320;23.198;2023-12-14T02:40:50;93900.13;;;6.19;100.00
63097;BME280;49185;42.320;23.198;2023-12-14T02:43:16;93898.78;;;6.17;100.00
63097;BME280;49185;42.320;23.198;2023-12-14T02:45:41;93907.31;;;6.24;100.00
63097;BME280;49185;42.320;23.198;2023-12-14T02:48:06;93895.47;;;6.26;100.00
63097;BME280;49185;42.320;23.198;2023-12-14T02:50:32;93905.03;;;6.50;100.00
63097;BME280;49185;42.320;23.198;2023-12-14T02:52:57;93908.13;;;6.63;100.00
63097;BME280;49185;42.320;23.198;2023-12-14T02:55:23;93889.88;;;6.62;100.00
63097;BME280;49185;42.320;23.198;2023-12-14T02:57:48;93894.19;;;6.68;100.00
63097;BME280;49185;42.320;23.198;2023-12-14T03:00:14;93903.13;;;6.84;100.00
63097;BME280;49185;42.320;23.198;2023-12-14T03:02:39;93906.44;;;6.96;100.00
63097;BME280;49185;42.320;23.198;2023-12-14T03:05:05;93904.97;;;6.83;100.00
63097;BME280;49185;42.320;23.198;2023-12-14T03:07:30;93920.38;;;6.70;100.00
63097;BME280;49185;42.320;23.198;2023-12-14T03:09:56;93926.88;;;6.62;100.00
63097;BME280;49185;42.320;23.198;2023-12-14T03:12:21;93895.97;;;6.62;100.00
63097;BME280;49185;42.320;23.198;2023-12-14T03:14:46;93900.25;;;6.46;100.00
63097;BME280;49185;42.320;23.198;2023-12-14T03:17:12;93909.19;;;6.62;100.00
63097;BME280;49185;42.320;23.198;2023-12-14T03:19:39;93903.47;;;6.71;100.00
63097;BME280;49185;42.320;23.198;2023-12-14T03:22:04;93924.00;;;6.63;100.00
63097;BME280;49185;42.320;23.198;2023-12-14T03:24:30;93902.38;;;6.67;100.00
63097;BME280;49185;42.320;23.198;2023-12-14T03:26:55;93888.84;;;6.63;100.00
63097;BME280;49185;42.320;23.198;2023-12-14T03:29:20;93894.06;;;6.58;100.00
63097;BME280;49185;42.320;23.198;2023-12-14T03:31:46;93908.81;;;6.54;100.00
63097;BME280;49185;42.320;23.198;2023-12-14T03:34:11;93880.22;;;6.51;100.00
63097;BME280;49185;42.320;23.198;2023-12-14T03:36:37;93896.88;;;6.51;100.00
63097;BME280;49185;42.320;23.198;2023-12-14T03:39:02;93891.34;;;6.53;100.00
63097;BME280;49185;42.320;23.198;2023-12-14T03:41:28;93906.47;;;6.57;100.00
63097;BME280;49185;42.320;23.198;2023-12-14T03:43:53;93912.78;;;6.56;100.00
63097;BME280;49185;42.320;23.198;2023-12-14T03:46:18;93895.66;;;6.59;100.00
63097;BME280;49185;42.320;23.198;2023-12-14T03:48:44;93897.00;;;6.61;100.00
63097;BME280;49185;42.320;23.198;2023-12-14T03:51:09;93915.50;;;6.61;100.00
63097;BME280;49185;42.320;23.198;2023-12-14T03:53:35;93902.13;;;6.68;100.00
63097;BME280;49185;42.320;23.198;2023-12-14T03:56:00;93911.25;;;6.60;100.00
63097;BME280;49185;42.320;23.198;2023-12-14T03:58:26;93898.25;;;6.54;100.00
63097;BME280;49185;42.320;23.198;2023-12-14T04:00:52;93902.53;;;6.60;100.00
63097;BME280;49185;42.320;23.198;2023-12-14T04:03:17;93904.88;;;6.56;100.00
63097;BME280;49185;42.320;23.198;2023-12-14T04:05:43;93907.75;;;6.55;100.00
63097;BME280;49185;42.320;23.198;2023-12-14T04:08:08;93899.47;;;6.68;100.00
63097;BME280;49185;42.320;23.198;2023-12-14T04:10:33;93885.16;;;6.64;100.00
63097;BME280;49185;42.320;23.198;2023-12-14T04:12:59;93884.78;;;6.55;100.00
63097;BME280;49185;42.320;23.198;2023-12-14T04:15:24;93890.97;;;6.44;100.00
63097;BME280;49185;42.320;23.198;2023-12-14T04:17:49;93904.56;;;6.53;100.00
63097;BME280;49185;42.320;23.198;2023-12-14T04:20:15;93895.53;;;6.49;100.00
63097;BME280;49185;42.320;23.198;2023-12-14T04:22:40;93902.38;;;6.50;100.00
63097;BME280;49185;42.320;23.198;2023-12-14T04:25:06;93886.72;;;6.43;100.00
63097;BME280;49185;42.320;23.198;2023-12-14T04:27:31;93879.44;;;6.50;100.00
63097;BME280;49185;42.320;23.198;2023-12-14T04:29:57;93894.53;;;6.55;100.00
63097;BME280;49185;42.320;23.198;2023-12-14T04:32:22;93896.06;;;6.51;100.00
63097;BME280;49185;42.320;23.198;2023-12-14T04:34:48;93896.88;;;6.51;100.00
63097;BME280;49185;42.320;23.198;2023-12-14T04:37:13;93883.41;;;6.53;100.00
63097;BME280;49185;42.320;23.198;2023-12-14T04:39:38;93883.50;;;6.58;100.00
63097;BME280;49185;42.320;23.198;2023-12-14T04:42:04;93891.19;;;6.81;100.00
63097;BME280;49185;42.320;23.198;2023-12-14T04:44:29;93886.47;;;6.83;100.00
63097;BME280;49185;42.320;23.198;2023-12-14T04:46:55;93899.47;;;6.90;100.00
63097;BME280;49185;42.320;23.198;2023-12-14T04:49:20;93870.66;;;6.89;100.00
63097;BME280;49185;42.320;23.198;2023-12-14T04:51:46;93883.06;;;6.88;100.00
63097;BME280;49185;42.320;23.198;2023-12-14T04:54:11;93884.94;;;6.88;100.00
63097;BME280;49185;42.320;23.198;2023-12-14T04:56:36;93884.94;;;6.88;100.00
63097;BME280;49185;42.320;23.198;2023-12-14T04:59:02;93892.84;;;6.88;100.00
63097;BME280;49185;42.320;23.198;2023-12-14T05:01:27;93898.16;;;6.88;100.00
63097;BME280;49185;42.320;23.198;2023-12-14T05:03:53;93908.31;;;6.96;100.00
63097;BME280;49185;42.320;23.198;2023-12-14T05:06:18;93912.53;;;6.97;100.00
63097;BME280;49185;42.320;23.198;2023-12-14T05:08:44;93899.63;;;7.00;100.00
63097;BME280;49185;42.320;23.198;2023-12-14T05:11:09;93904.97;;;7.06;100.00
63097;BME280;49185;42.320;23.198;2023-12-14T05:13:35;93899.75;;;7.11;100.00
63097;BME280;49185;42.320;23.198;2023-12-14T05:16:00;93907.16;;;7.36;100.00
63097;BME280;49185;42.320;23.198;2023-12-14T05:18:26;93910.59;;;7.36;100.00
63097;BME280;49185;42.320;23.198;2023-12-14T05:20:51;93918.41;;;7.48;100.00
63097;BME280;49185;42.320;23.198;2023-12-14T05:23:16;93927.41;;;7.47;100.00
63097;BME280;49185;42.320;23.198;2023-12-14T05:25:42;93916.19;;;7.40;100.00
63097;BME280;49185;42.320;23.198;2023-12-14T05:28:08;93932.88;;;7.40;100.00
63097;BME280;49185;42.320;23.198;2023-12-14T05:30:33;93936.63;;;7.45;100.00
63097;BME280;49185;42.320;23.198;2023-12-14T05:32:58;93906.53;;;7.51;100.00
63097;BME280;49185;42.320;23.198;2023-12-14T05:35:24;93917.72;;;7.58;100.00
63097;BME280;49185;42.320;23.198;2023-12-14T05:37:49;93913.59;;;7.45;100.00
63097;BME280;49185;42.320;23.198;2023-12-14T05:40:15;93915.63;;;7.38;100.00
63097;BME280;49185;42.320;23.198;2023-12-14T05:42:40;93911.97;;;7.39;100.00
63097;BME280;49185;42.320;23.198;2023-12-14T05:45:06;93910.66;;;7.41;100.00
63097;BME280;49185;42.320;23.198;2023-12-14T05:47:32;93919.41;;;7.42;100.00
63097;BME280;49185;42.320;23.198;2023-12-14T05:49:58;93936.88;;;7.43;100.00
63097;BME280;49185;42.320;23.198;2023-12-14T05:52:23;93935.00;;;7.44;100.00
63097;BME280;49185;42.320;23.198;2023-12-14T05:54:48;93950.63;;;7.45;100.00
63097;BME280;49185;42.320;23.198;2023-12-14T05:57:14;93928.94;;;7.43;100.00
63097;BME280;49185;42.320;23.198;2023-12-14T05:59:39;93930.19;;;7.35;100.00
63097;BME280;49185;42.320;23.198;2023-12-14T06:02:04;93946.59;;;7.37;100.00
63097;BME280;49185;42.320;23.198;2023-12-14T06:04:30;93932.81;;;7.35;100.00
63097;BME280;49185;42.320;23.198;2023-12-14T06:06:55;93936.00;;;7.37;100.00
63097;BME280;49185;42.320;23.198;2023-12-14T06:09:21;93941.84;;;7.39;100.00
63097;BME280;49185;42.320;23.198;2023-12-14T06:11:46;93931.09;;;7.46;100.00
63097;BME280;49185;42.320;23.198;2023-12-14T06:14:11;93948.31;;;7.49;100.00
63097;BME280;49185;42.320;23.198;2023-12-14T06:16:37;93933.00;;;7.51;100.00
63097;BME280;49185;42.320;23.198;2023-12-14T06:19:02;93931.44;;;7.55;100.00
63097;BME280;49185;42.320;23.198;2023-12-14T06:21:28;93927.19;;;7.54;100.00
63097;BME280;49185;42.320;23.198;2023-12-14T06:23:53;93928.69;;;7.45;100.00
63097;BME280;49185;42.320;23.198;2023-12-14T06:26:18;93954.09;;;7.46;100.00
63097;BME280;49185;42.320;23.198;2023-12-14T06:28:44;93935.94;;;7.54;100.00
63097;BME280;49185;42.320;23.198;2023-12-14T06:31:13;93944.38;;;7.51;100.00
63097;BME280;49185;42.320;23.198;2023-12-14T06:33:39;93951.06;;;7.59;100.00
63097;BME280;49185;42.320;23.198;2023-12-14T06:36:05;93944.97;;;7.58;100.00
63097;BME280;49185;42.320;23.198;2023-12-14T06:38:31;93946.13;;;7.68;100.00
63097;BME280;49185;42.320;23.198;2023-12-14T06:40:56;93937.75;;;7.76;100.00
63097;BME280;49185;42.320;23.198;2023-12-14T06:43:21;93948.63;;;7.79;100.00
63097;BME280;49185;42.320;23.198;2023-12-14T06:45:47;93949.91;;;7.77;100.00
63097;BME280;49185;42.320;23.198;2023-12-14T06:48:12;93945.94;;;7.74;100.00
63097;BME280;49185;42.320;23.198;2023-12-14T06:50:38;93940.38;;;7.76;100.00
63097;BME280;49185;42.320;23.198;2023-12-14T06:53:03;93967.59;;;7.71;100.00
63097;BME280;49185;42.320;23.198;2023-12-14T06:55:28;93938.88;;;7.85;100.00
63097;BME280;49185;42.320;23.198;2023-12-14T06:57:54;93958.22;;;7.86;100.00
63097;BME280;49185;42.320;23.198;2023-12-14T07:00:19;93966.97;;;7.86;100.00
63097;BME280;49185;42.320;23.198;2023-12-14T07:02:45;93951.09;;;7.86;100.00
63097;BME280;49185;42.320;23.198;2023-12-14T07:05:10;93957.97;;;7.87;100.00
63097;BME280;49185;42.320;23.198;2023-12-14T07:07:35;93958.50;;;7.89;100.00
63097;BME280;49185;42.320;23.198;2023-12-14T07:10:01;93952.97;;;7.91;100.00
63097;BME280;49185;42.320;23.198;2023-12-14T07:12:26;93953.25;;;7.94;100.00
63097;BME280;49185;42.320;23.198;2023-12-14T07:14:51;93962.03;;;8.00;100.00
63097;BME280;49185;42.320;23.198;2023-12-14T07:17:17;93954.06;;;7.95;100.00
63097;BME280;49185;42.320;23.198;2023-12-14T07:19:42;93950.91;;;7.98;100.00
63097;BME280;49185;42.320;23.198;2023-12-14T07:22:08;93968.41;;;7.99;100.00
63097;BME280;49185;42.320;23.198;2023-12-14T07:24:33;93961.25;;;7.99;100.00
63097;BME280;49185;42.320;23.198;2023-12-14T07:26:58;93973.22;;;8.07;100.00
63097;BME280;49185;42.320;23.198;2023-12-14T07:29:24;93972.19;;;8.08;100.00
63097;BME280;49185;42.320;23.198;2023-12-14T07:31:49;93968.22;;;8.11;100.00
63097;BME280;49185;42.320;23.198;2023-12-14T07:34:14;93965.59;;;8.11;100.00
63097;BME280;49185;42.320;23.198;2023-12-14T07:36:40;93974.66;;;8.15;100.00
63097;BME280;49185;42.320;23.198;2023-12-14T07:39:05;93971.94;;;8.10;100.00
63097;BME280;49185;42.320;23.198;2023-12-14T07:41:31;93966.09;;;8.08;100.00
63097;BME280;49185;42.320;23.198;2023-12-14T07:43:56;93973.22;;;8.07;100.00
63097;BME280;49185;42.320;23.198;2023-12-14T07:46:21;93975.38;;;8.10;100.00
63097;BME280;49185;42.320;23.198;2023-12-14T07:48:47;93973.28;;;8.12;100.00
63097;BME280;49185;42.320;23.198;2023-12-14T07:51:12;93974.16;;;8.18;100.00
63097;BME280;49185;42.320;23.198;2023-12-14T07:53:38;93979.94;;;8.15;100.00
63097;BME280;49185;42.320;23.198;2023-12-14T07:56:03;93982.69;;;8.25;100.00
63097;BME280;49185;42.320;23.198;2023-12-14T07:58:29;93972.63;;;8.27;100.00
63097;BME280;49185;42.320;23.198;2023-12-14T08:00:54;93984.56;;;8.30;100.00
63097;BME280;49185;42.320;23.198;2023-12-14T08:03:20;93982.16;;;8.28;100.00
63097;BME280;49185;42.320;23.198;2023-12-14T08:05:45;93984.91;;;8.39;100.00
63097;BME280;49185;42.320;23.198;2023-12-14T08:08:11;93996.56;;;8.70;100.00
63097;BME280;49185;42.320;23.198;2023-12-14T08:10:36;93991.47;;;9.01;100.00
63097;BME280;49185;42.320;23.198;2023-12-14T08:13:01;93976.78;;;9.36;100.00
63097;BME280;49185;42.320;23.198;2023-12-14T08:15:27;93991.84;;;9.98;100.00
63097;BME280;49185;42.320;23.198;2023-12-14T08:17:52;93972.78;;;10.32;100.00
63097;BME280;49185;42.320;23.198;2023-12-14T08:20:17;93984.69;;;10.09;100.00
63097;BME280;49185;42.320;23.198;2023-12-14T08:22:43;93967.13;;;9.98;100.00
63097;BME280;49185;42.320;23.198;2023-12-14T08:25:08;93982.56;;;10.01;100.00
63097;BME280;49185;42.320;23.198;2023-12-14T08:27:34;93970.56;;;9.78;100.00
63097;BME280;49185;42.320;23.198;2023-12-14T08:29:59;93981.19;;;9.83;100.00
63097;BME280;49185;42.320;23.198;2023-12-14T08:32:25;93990.19;;;9.72;100.00
63097;BME280;49185;42.320;23.198;2023-12-14T08:34:50;93965.00;;;9.79;100.00
63097;BME280;49185;42.320;23.198;2023-12-14T08:37:16;93979.84;;;9.80;100.00
63097;BME280;49185;42.320;23.198;2023-12-14T08:39:41;93980.09;;;9.68;100.00
63097;BME280;49185;42.320;23.198;2023-12-14T08:42:06;93982.19;;;9.66;100.00
63097;BME280;49185;42.320;23.198;2023-12-14T08:44:32;93983.81;;;9.67;100.00
63097;BME280;49185;42.320;23.198;2023-12-14T08:46:57;93964.97;;;9.89;100.00
63097;BME280;49185;42.320;23.198;2023-12-14T08:49:22;93970.81;;;9.76;100.00
63097;BME280;49185;42.320;23.198;2023-12-14T08:51:48;93963.13;;;9.85;100.00
63097;BME280;49185;42.320;23.198;2023-12-14T08:54:13;93949.84;;;9.80;100.00
63097;BME280;49185;42.320;23.198;2023-12-14T08:56:39;93960.16;;;9.71;100.00
63097;BME280;49185;42.320;23.198;2023-12-14T08:59:04;93955.38;;;9.73;100.00
63097;BME280;49185;42.320;23.198;2023-12-14T09:01:29;93952.50;;;9.85;100.00
63097;BME280;49185;42.320;23.198;2023-12-14T09:03:55;93956.75;;;9.86;100.00
63097;BME280;49185;42.320;23.198;2023-12-14T09:06:20;93938.69;;;9.93;100.00
63097;BME280;49185;42.320;23.198;2023-12-14T09:08:46;93938.97;;;10.07;100.00
63097;BME280;49185;42.320;23.198;2023-12-14T09:11:11;93940.84;;;10.01;100.00
63097;BME280;49185;42.320;23.198;2023-12-14T09:13:37;93941.63;;;9.97;100.00
63097;BME280;49185;42.320;23.198;2023-12-14T09:16:03;93936.84;;;10.09;100.00
63097;BME280;49185;42.320;23.198;2023-12-14T09:18:29;93944.31;;;10.17;100.00
63097;BME280;49185;42.320;23.198;2023-12-14T09:20:54;93929.69;;;10.15;100.00
63097;BME280;49185;42.320;23.198;2023-12-14T09:23:19;93914.03;;;10.23;100.00
63097;BME280;49185;42.320;23.198;2023-12-14T09:25:45;93906.03;;;10.49;100.00
63097;BME280;49185;42.320;23.198;2023-12-14T09:28:11;93913.50;;;10.52;100.00
63097;BME280;49185;42.320;23.198;2023-12-14T09:30:36;93903.13;;;10.56;100.00
63097;BME280;49185;42.320;23.198;2023-12-14T09:33:02;93897.78;;;10.51;100.00
63097;BME280;49185;42.320;23.198;2023-12-14T09:35:27;93900.97;;;10.68;100.00
63097;BME280;49185;42.320;23.198;2023-12-14T09:37:52;93901.25;;;10.61;100.00
63097;BME280;49185;42.320;23.198;2023-12-14T09:40:18;93900.97;;;10.58;100.00
63097;BME280;49185;42.320;23.198;2023-12-14T09:42:44;93918.28;;;10.55;100.00
63097;BME280;49185;42.320;23.198;2023-12-14T09:45:10;93911.34;;;10.64;100.00
63097;BME280;49185;42.320;23.198;2023-12-14T09:47:39;93921.16;;;10.74;100.00
63097;BME280;49185;42.320;23.198;2023-12-14T09:50:07;93920.88;;;10.81;100.00
63097;BME280;49185;42.320;23.198;2023-12-14T09:52:32;93921.66;;;10.87;100.00
63097;BME280;49185;42.320;23.198;2023-12-14T09:54:57;93919.78;;;10.92;100.00
63097;BME280;49185;42.320;23.198;2023-12-14T09:57:23;93910.72;;;10.98;100.00
63097;BME280;49185;42.320;23.198;2023-12-14T09:59:53;93925.84;;;11.08;100.00
63097;BME280;49185;42.320;23.198;2023-12-14T10:02:18;93908.25;;;11.23;100.00
63097;BME280;49185;42.320;23.198;2023-12-14T10:04:44;93915.41;;;11.32;100.00
63097;BME280;49185;42.320;23.198;2023-12-14T10:07:09;93913.22;;;11.45;100.00
63097;BME280;49185;42.320;23.198;2023-12-14T10:09:36;93916.88;;;11.54;100.00
63097;BME280;49185;42.320;23.198;2023-12-14T10:12:07;93919.81;;;11.57;100.00
63097;BME280;49185;42.320;23.198;2023-12-14T10:14:33;93921.13;;;11.65;100.00
63097;BME280;49185;42.320;23.198;2023-12-14T10:17:19;93912.50;;;11.78;100.00
63097;BME280;49185;42.320;23.198;2023-12-14T10:19:47;93921.56;;;11.77;100.00
63097;BME280;49185;42.320;23.198;2023-12-14T10:22:17;93926.44;;;11.65;100.00
63097;BME280;49185;42.320;23.198;2023-12-14T10:24:43;93912.88;;;11.62;100.00
63097;BME280;49185;42.320;23.198;2023-12-14T10:27:09;93926.22;;;11.56;100.00
63097;BME280;49185;42.320;23.198;2023-12-14T10:29:34;93903.97;;;11.76;100.00
63097;BME280;49185;42.320;23.198;2023-12-14T10:32:05;93921.38;;;11.64;100.00
63097;BME280;49185;42.320;23.198;2023-12-14T10:34:30;93919.28;;;11.55;100.00
63097;BME280;49185;42.320;23.198;2023-12-14T10:36:56;93912.03;;;11.66;100.00
63097;BME280;49185;42.320;23.198;2023-12-14T10:39:21;93915.84;;;11.50;100.00
63097;BME280;49185;42.320;23.198;2023-12-14T10:41:47;93933.41;;;11.51;100.00
63097;BME280;49185;42.320;23.198;2023-12-14T10:44:13;93944.06;;;11.51;100.00
63097;BME280;49185;42.320;23.198;2023-12-14T10:46:39;93941.69;;;11.54;100.00
63097;BME280;49185;42.320;23.198;2023-12-14T10:49:05;93934.09;;;11.72;100.00
63097;BME280;49185;42.320;23.198;2023-12-14T10:51:30;93944.66;;;11.37;100.00
63097;BME280;49185;42.320;23.198;2023-12-14T10:53:57;93958.00;;;11.27;100.00
63097;BME280;49185;42.320;23.198;2023-12-14T10:56:23;93955.84;;;11.39;100.00
63097;BME280;49185;42.320;23.198;2023-12-14T10:58:57;93952.63;;;11.48;100.00
63097;BME280;49185;42.320;23.198;2023-12-14T11:01:24;93958.50;;;11.45;100.00
63097;BME280;49185;42.320;23.198;2023-12-14T11:03:53;93955.06;;;11.39;100.00
63097;BME280;49185;42.320;23.198;2023-12-14T11:08:59;93952.00;;;11.66;100.00
63097;BME280;49185;42.320;23.198;2023-12-14T11:11:28;93943.97;;;11.71;100.00
63097;BME280;49185;42.320;23.198;2023-12-14T11:13:53;93939.69;;;11.75;100.00
63097;BME280;49185;42.320;23.198;2023-12-14T11:16:23;93946.13;;;11.69;100.00
63097;BME280;49185;42.320;23.198;2023-12-14T11:21:47;93943.47;;;11.64;100.00
63097;BME280;49185;42.320;23.198;2023-12-14T11:24:13;93951.22;;;11.61;100.00
63097;BME280;49185;42.320;23.198;2023-12-14T11:26:39;93939.50;;;11.62;100.00
63097;BME280;49185;42.320;23.198;2023-12-14T11:29:06;93950.97;;;11.62;100.00
63097;BME280;49185;42.320;23.198;2023-12-14T11:31:31;93943.22;;;11.66;100.00
63097;BME280;49185;42.320;23.198;2023-12-14T11:33:58;93944.53;;;11.68;100.00
63097;BME280;49185;42.320;23.198;2023-12-14T11:36:25;93953.31;;;11.74;100.00
63097;BME280;49185;42.320;23.198;2023-12-14T11:38:50;93953.31;;;11.74;100.00
63097;BME280;49185;42.320;23.198;2023-12-14T11:41:16;93956.75;;;11.74;100.00
63097;BME280;49185;42.320;23.198;2023-12-14T11:43:42;93962.09;;;11.74;100.00
63097;BME280;49185;42.320;23.198;2023-12-14T11:46:09;93968.72;;;11.77;100.00
63097;BME280;49185;42.320;23.198;2023-12-14T11:48:34;93966.34;;;11.75;100.00
63097;BME280;49185;42.320;23.198;2023-12-14T11:50:59;93969.84;;;11.71;100.00
63097;BME280;49185;42.320;23.198;2023-12-14T11:53:25;93977.84;;;11.66;100.00
63097;BME280;49185;42.320;23.198;2023-12-14T11:55:51;93967.72;;;11.63;100.00
63097;BME280;49185;42.320;23.198;2023-12-14T11:58:17;93964.34;;;11.47;100.00
63097;BME280;49185;42.320;23.198;2023-12-14T12:00:43;93973.69;;;11.44;100.00
63097;BME280;49185;42.320;23.198;2023-12-14T12:08:06;93955.38;;;11.17;100.00
63097;BME280;49185;42.320;23.198;2023-12-14T12:10:33;93957.50;;;11.20;100.00
63097;BME280;49185;42.320;23.198;2023-12-14T12:13:01;93955.56;;;11.41;100.00
63097;BME280;49185;42.320;23.198;2023-12-14T12:15:26;93951.38;;;11.25;100.00
63097;BME280;49185;42.320;23.198;2023-12-14T12:17:51;93952.72;;;11.17;100.00
63097;BME280;49185;42.320;23.198;2023-12-14T12:20:17;93950.91;;;10.97;100.00
63097;BME280;49185;42.320;23.198;2023-12-14T12:22:42;93946.91;;;11.05;100.00
63097;BME280;49185;42.320;23.198;2023-12-14T12:25:08;93937.56;;;11.12;100.00
63097;BME280;49185;42.320;23.198;2023-12-14T12:27:33;93939.16;;;11.08;100.00
63097;BME280;49185;42.320;23.198;2023-12-14T12:29:58;93951.97;;;10.96;100.00
63097;BME280;49185;42.320;23.198;2023-12-14T12:32:24;93943.41;;;11.25;100.00
63097;BME280;49185;42.320;23.198;2023-12-14T12:34:49;93940.72;;;11.25;100.00
63097;BME280;49185;42.320;23.198;2023-12-14T12:37:14;93936.97;;;11.26;100.00
63097;BME280;49185;42.320;23.198;2023-12-14T12:39:40;93946.28;;;11.33;100.00
63097;BME280;49185;42.320;23.198;2023-12-14T12:42:05;93940.41;;;11.31;100.00
63097;BME280;49185;42.320;23.198;2023-12-14T12:44:31;93950.31;;;11.15;100.00
63097;BME280;49185;42.320;23.198;2023-12-14T12:46:56;93952.53;;;10.88;100.00
63097;BME280;49185;42.320;23.198;2023-12-14T12:49:21;93954.09;;;11.09;100.00